sensor_id;sensor_type;location;lat;lon;timestamp;temperature;humidity
61253;DHT22;47127;47.516;8.596;2023-10-19T00:00:39;10.80;99.90
61253;DHT22;47127;47.516;8.596;2023-10-19T00:03:07;10.70;99.90
61253;DHT22;47127;47.516;8.596;2023-10-19T00:05:33;10.70;99.90
61253;DHT22;47127;47.516;8.596;2023-10-19T00:08:02;10.70;99.90
61253;DHT22;47127;47.516;8.596;2023-10-19T00:10:41;10.70;99.90
61253;DHT22;47127;47.516;8.596;2023-10-19T00:13:14;10.70;99.90
61253;DHT22;47127;47.516;8.596;2023-10-19T00:15:41;10.70;99.90
61253;DHT22;47127;47.516;8.596;2023-10-19T00:18:12;10.80;99.90
61253;DHT22;47127;47.516;8.596;2023-10-19T00:20:44;10.80;99.90
61253;DHT22;47127;47.516;8.596;2023-10-19T00:23:13;10.80;99.90
61253;DHT22;47127;47.516;8.596;2023-10-19T00:25:40;10.90;99.90
61253;DHT22;47127;47.516;8.596;2023-10-19T00:28:07;10.90;99.90
61253;DHT22;47127;47.516;8.596;2023-10-19T00:30:33;10.80;99.90
61253;DHT22;47127;47.516;8.596;2023-10-19T00:33:04;10.90;99.90
61253;DHT22;47127;47.516;8.596;2023-10-19T00:35:30;10.90;99.90
61253;DHT22;47127;47.516;8.596;2023-10-19T00:38:08;10.80;99.90
61253;DHT22;47127;47.516;8.596;2023-10-19T00:41:04;10.80;99.90
61253;DHT22;47127;47.516;8.596;2023-10-19T00:43:40;10.70;99.90
61253;DHT22;47127;47.516;8.596;2023-10-19T00:46:13;10.80;99.90
61253;DHT22;47127;47.516;8.596;2023-10-19T00:48:48;10.80;99.90
61253;DHT22;47127;47.516;8.596;2023-10-19T00:51:16;10.80;99.90
61253;DHT22;47127;47.516;8.596;2023-10-19T00:53:54;10.80;99.90
61253;DHT22;47127;47.516;8.596;2023-10-19T00:56:21;10.80;99.90
61253;DHT22;47127;47.516;8.596;2023-10-19T00:58:49;10.80;99.90
61253;DHT22;47127;47.516;8.596;2023-10-19T01:01:23;10.80;99.90
61253;DHT22;47127;47.516;8.596;2023-10-19T01:03:50;10.70;99.90
61253;DHT22;47127;47.516;8.596;2023-10-19T01:06:24;10.70;99.90
61253;DHT22;47127;47.516;8.596;2023-10-19T01:08:52;10.70;99.90
61253;DHT22;47127;47.516;8.596;2023-10-19T01:11:19;10.80;99.90
61253;DHT22;47127;47.516;8.596;2023-10-19T01:13:47;10.80;99.90
61253;DHT22;47127;47.516;8.596;2023-10-19T01:16:15;10.80;99.90
61253;DHT22;47127;47.516;8.596;2023-10-19T01:18:48;10.70;99.90
61253;DHT22;47127;47.516;8.596;2023-10-19T01:21:13;10.80;99.90
61253;DHT22;47127;47.516;8.596;2023-10-19T01:23:39;10.70;99.90
61253;DHT22;47127;47.516;8.596;2023-10-19T01:26:05;10.70;99.90
61253;DHT22;47127;47.516;8.596;2023-10-19T01:28:36;10.70;99.90
61253;DHT22;47127;47.516;8.596;2023-10-19T01:31:21;10.70;99.90
61253;DHT22;47127;47.516;8.596;2023-10-19T01:33:59;10.70;99.90
61253;DHT22;47127;47.516;8.596;2023-10-19T01:36:31;10.70;99.90
61253;DHT22;47127;47.516;8.596;2023-10-19T01:39:07;10.80;99.90
61253;DHT22;47127;47.516;8.596;2023-10-19T01:41:37;10.80;99.90
61253;DHT22;47127;47.516;8.596;2023-10-19T01:44:03;10.80;99.90
61253;DHT22;47127;47.516;8.596;2023-10-19T01:46:34;10.80;99.90
61253;DHT22;47127;47.516;8.596;2023-10-19T01:49:01;10.80;99.90
61253;DHT22;47127;47.516;8.596;2023-10-19T01:51:30;10.70;99.90
61253;DHT22;47127;47.516;8.596;2023-10-19T01:53:56;10.80;99.90
61253;DHT22;47127;47.516;8.596;2023-10-19T01:56:23;10.80;99.90
61253;DHT22;47127;47.516;8.596;2023-10-19T01:58:49;10.80;99.90
61253;DHT22;47127;47.516;8.596;2023-10-19T02:01:17;10.80;99.90
61253;DHT22;47127;47.516;8.596;2023-10-19T02:03:59;10.80;99.90
61253;DHT22;47127;47.516;8.596;2023-10-19T02:06:26;10.80;99.90
61253;DHT22;47127;47.516;8.596;2023-10-19T02:09:13;10.90;99.90
61253;DHT22;47127;47.516;8.596;2023-10-19T02:11:47;10.90;99.90
61253;DHT22;47127;47.516;8.596;2023-10-19T02:14:14;10.80;99.90
61253;DHT22;47127;47.516;8.596;2023-10-19T02:16:44;10.90;99.90
61253;DHT22;47127;47.516;8.596;2023-10-19T02:19:13;10.90;99.90
61253;DHT22;47127;47.516;8.596;2023-10-19T02:21:38;10.90;99.90
61253;DHT22;47127;47.516;8.596;2023-10-19T02:24:09;10.90;99.90
61253;DHT22;47127;47.516;8.596;2023-10-19T02:26:35;10.90;99.90
61253;DHT22;47127;47.516;8.596;2023-10-19T02:29:03;11.00;99.90
61253;DHT22;47127;47.516;8.596;2023-10-19T02:31:36;10.90;99.90
61253;DHT22;47127;47.516;8.596;2023-10-19T02:34:10;11.00;99.90
61253;DHT22;47127;47.516;8.596;2023-10-19T02:36:55;10.90;99.90
61253;DHT22;47127;47.516;8.596;2023-10-19T02:39:21;10.90;99.90
61253;DHT22;47127;47.516;8.596;2023-10-19T02:41:50;10.90;99.90
61253;DHT22;47127;47.516;8.596;2023-10-19T02:44:18;10.90;99.90
61253;DHT22;47127;47.516;8.596;2023-10-19T02:47:05;10.90;99.90
61253;DHT22;47127;47.516;8.596;2023-10-19T02:49:35;11.00;99.90
61253;DHT22;47127;47.516;8.596;2023-10-19T02:52:05;10.90;99.90
61253;DHT22;47127;47.516;8.596;2023-10-19T02:54:31;10.90;99.90
61253;DHT22;47127;47.516;8.596;2023-10-19T02:57:00;11.00;99.90
61253;DHT22;47127;47.516;8.596;2023-10-19T02:59:27;10.90;99.90
61253;DHT22;47127;47.516;8.596;2023-10-19T03:01:59;11.00;99.90
61253;DHT22;47127;47.516;8.596;2023-10-19T03:04:38;11.00;99.90
61253;DHT22;47127;47.516;8.596;2023-10-19T03:07:04;11.10;99.90
61253;DHT22;47127;47.516;8.596;2023-10-19T03:09:30;11.20;99.90
61253;DHT22;47127;47.516;8.596;2023-10-19T03:11:57;11.20;99.90
61253;DHT22;47127;47.516;8.596;2023-10-19T03:14:30;11.20;99.90
61253;DHT22;47127;47.516;8.596;2023-10-19T03:16:57;11.20;99.90
61253;DHT22;47127;47.516;8.596;2023-10-19T03:19:24;11.10;99.90
61253;DHT22;47127;47.516;8.596;2023-10-19T03:21:50;11.20;99.90
61253;DHT22;47127;47.516;8.596;2023-10-19T03:24:18;11.10;99.90
61253;DHT22;47127;47.516;8.596;2023-10-19T03:27:12;11.10;99.90
61253;DHT22;47127;47.516;8.596;2023-10-19T03:29:47;11.00;99.90
61253;DHT22;47127;47.516;8.596;2023-10-19T03:32:24;11.00;99.90
61253;DHT22;47127;47.516;8.596;2023-10-19T03:34:57;11.00;99.90
61253;DHT22;47127;47.516;8.596;2023-10-19T03:37:26;11.10;99.90
61253;DHT22;47127;47.516;8.596;2023-10-19T03:39:54;11.10;99.90
61253;DHT22;47127;47.516;8.596;2023-10-19T03:42:24;11.10;99.90
61253;DHT22;47127;47.516;8.596;2023-10-19T03:44:58;11.00;99.90
61253;DHT22;47127;47.516;8.596;2023-10-19T03:47:25;11.10;99.90
61253;DHT22;47127;47.516;8.596;2023-10-19T03:49:55;11.10;99.90
61253;DHT22;47127;47.516;8.596;2023-10-19T03:52:21;11.20;99.90
61253;DHT22;47127;47.516;8.596;2023-10-19T03:54:48;11.10;99.90
61253;DHT22;47127;47.516;8.596;2023-10-19T03:57:15;11.20;99.90
61253;DHT22;47127;47.516;8.596;2023-10-19T03:59:45;11.20;99.90
61253;DHT22;47127;47.516;8.596;2023-10-19T04:02:11;11.20;99.90
61253;DHT22;47127;47.516;8.596;2023-10-19T04:04:40;11.20;99.90
61253;DHT22;47127;47.516;8.596;2023-10-19T04:07:09;11.20;99.90
61253;DHT22;47127;47.516;8.596;2023-10-19T04:09:50;11.10;99.90
61253;DHT22;47127;47.516;8.596;2023-10-19T04:12:29;11.20;99.90
61253;DHT22;47127;47.516;8.596;2023-10-19T04:14:56;11.10;99.90
61253;DHT22;47127;47.516;8.596;2023-10-19T04:17:22;11.10;99.90
61253;DHT22;47127;47.516;8.596;2023-10-19T04:19:49;11.20;99.90
61253;DHT22;47127;47.516;8.596;2023-10-19T04:22:17;11.20;99.90
61253;DHT22;47127;47.516;8.596;2023-10-19T04:24:48;11.20;99.90
61253;DHT22;47127;47.516;8.596;2023-10-19T04:27:13;11.20;99.90
61253;DHT22;47127;47.516;8.596;2023-10-19T04:29:40;11.10;99.90
61253;DHT22;47127;47.516;8.596;2023-10-19T04:32:11;11.20;99.90
61253;DHT22;47127;47.516;8.596;2023-10-19T04:34:39;11.20;99.90
61253;DHT22;47127;47.516;8.596;2023-10-19T04:37:05;11.20;99.90
61253;DHT22;47127;47.516;8.596;2023-10-19T04:39:32;11.20;99.90
61253;DHT22;47127;47.516;8.596;2023-10-19T04:41:59;11.40;99.90
61253;DHT22;47127;47.516;8.596;2023-10-19T04:44:25;11.40;99.90
61253;DHT22;47127;47.516;8.596;2023-10-19T04:46:50;11.40;99.90
61253;DHT22;47127;47.516;8.596;2023-10-19T04:49:16;11.30;99.90
61253;DHT22;47127;47.516;8.596;2023-10-19T04:51:42;11.30;99.90
61253;DHT22;47127;47.516;8.596;2023-10-19T04:54:09;11.30;99.90
61253;DHT22;47127;47.516;8.596;2023-10-19T04:56:35;11.40;99.90
61253;DHT22;47127;47.516;8.596;2023-10-19T04:59:03;11.40;99.90
61253;DHT22;47127;47.516;8.596;2023-10-19T05:01:30;11.40;99.90
61253;DHT22;47127;47.516;8.596;2023-10-19T05:03:59;11.40;99.90
61253;DHT22;47127;47.516;8.596;2023-10-19T05:06:25;11.30;99.90
61253;DHT22;47127;47.516;8.596;2023-10-19T05:08:50;11.40;99.90
61253;DHT22;47127;47.516;8.596;2023-10-19T05:11:17;11.40;99.90
61253;DHT22;47127;47.516;8.596;2023-10-19T05:13:43;11.40;99.90
61253;DHT22;47127;47.516;8.596;2023-10-19T05:16:09;11.30;99.90
61253;DHT22;47127;47.516;8.596;2023-10-19T05:18:35;11.40;99.90
61253;DHT22;47127;47.516;8.596;2023-10-19T05:21:01;11.30;99.90
61253;DHT22;47127;47.516;8.596;2023-10-19T05:23:27;11.40;99.90
61253;DHT22;47127;47.516;8.596;2023-10-19T05:25:54;11.30;99.90
61253;DHT22;47127;47.516;8.596;2023-10-19T05:28:26;11.40;99.90
61253;DHT22;47127;47.516;8.596;2023-10-19T05:30:51;11.40;99.90
61253;DHT22;47127;47.516;8.596;2023-10-19T05:33:17;11.40;99.90
61253;DHT22;47127;47.516;8.596;2023-10-19T05:35:49;11.30;99.90
61253;DHT22;47127;47.516;8.596;2023-10-19T05:38:16;11.30;99.90
61253;DHT22;47127;47.516;8.596;2023-10-19T05:40:42;11.20;99.90
61253;DHT22;47127;47.516;8.596;2023-10-19T05:43:12;11.40;99.90
61253;DHT22;47127;47.516;8.596;2023-10-19T05:45:38;11.40;99.90
61253;DHT22;47127;47.516;8.596;2023-10-19T05:48:04;11.40;99.90
61253;DHT22;47127;47.516;8.596;2023-10-19T05:50:35;11.30;99.90
61253;DHT22;47127;47.516;8.596;2023-10-19T05:53:02;11.20;99.90
61253;DHT22;47127;47.516;8.596;2023-10-19T05:55:28;11.10;99.90
61253;DHT22;47127;47.516;8.596;2023-10-19T05:57:55;11.10;99.90
61253;DHT22;47127;47.516;8.596;2023-10-19T06:00:21;11.00;99.90
61253;DHT22;47127;47.516;8.596;2023-10-19T06:02:48;11.00;99.90
61253;DHT22;47127;47.516;8.596;2023-10-19T06:05:15;10.90;99.90
61253;DHT22;47127;47.516;8.596;2023-10-19T06:07:45;10.90;99.90
61253;DHT22;47127;47.516;8.596;2023-10-19T06:10:12;10.90;99.90
61253;DHT22;47127;47.516;8.596;2023-10-19T06:12:44;10.90;99.90
61253;DHT22;47127;47.516;8.596;2023-10-19T06:15:12;10.90;99.90
61253;DHT22;47127;47.516;8.596;2023-10-19T06:17:42;10.90;99.90
61253;DHT22;47127;47.516;8.596;2023-10-19T06:20:09;10.90;99.90
61253;DHT22;47127;47.516;8.596;2023-10-19T06:22:46;10.80;99.90
61253;DHT22;47127;47.516;8.596;2023-10-19T06:25:16;10.80;99.90
61253;DHT22;47127;47.516;8.596;2023-10-19T06:27:43;10.80;99.90
61253;DHT22;47127;47.516;8.596;2023-10-19T06:30:10;10.80;99.90
61253;DHT22;47127;47.516;8.596;2023-10-19T06:32:36;10.80;99.90
61253;DHT22;47127;47.516;8.596;2023-10-19T06:35:03;10.90;99.90
61253;DHT22;47127;47.516;8.596;2023-10-19T06:37:29;10.80;99.90
61253;DHT22;47127;47.516;8.596;2023-10-19T06:39:54;10.80;99.90
61253;DHT22;47127;47.516;8.596;2023-10-19T06:42:20;10.80;99.90
61253;DHT22;47127;47.516;8.596;2023-10-19T06:44:46;10.80;99.90
61253;DHT22;47127;47.516;8.596;2023-10-19T06:47:11;10.80;99.90
61253;DHT22;47127;47.516;8.596;2023-10-19T06:49:39;10.90;99.90
61253;DHT22;47127;47.516;8.596;2023-10-19T06:52:04;10.90;99.90
61253;DHT22;47127;47.516;8.596;2023-10-19T06:54:31;10.90;99.90
61253;DHT22;47127;47.516;8.596;2023-10-19T06:56:57;10.90;99.90
61253;DHT22;47127;47.516;8.596;2023-10-19T06:59:23;10.90;99.90
61253;DHT22;47127;47.516;8.596;2023-10-19T07:01:49;11.00;99.90
61253;DHT22;47127;47.516;8.596;2023-10-19T07:04:18;11.00;99.90
61253;DHT22;47127;47.516;8.596;2023-10-19T07:06:47;11.00;99.90
61253;DHT22;47127;47.516;8.596;2023-10-19T07:09:13;11.00;99.90
61253;DHT22;47127;47.516;8.596;2023-10-19T07:11:40;11.10;99.90
61253;DHT22;47127;47.516;8.596;2023-10-19T07:14:08;11.00;99.90
61253;DHT22;47127;47.516;8.596;2023-10-19T07:16:35;11.10;99.90
61253;DHT22;47127;47.516;8.596;2023-10-19T07:19:01;11.10;99.90
61253;DHT22;47127;47.516;8.596;2023-10-19T07:21:26;11.10;99.90
61253;DHT22;47127;47.516;8.596;2023-10-19T07:23:54;11.10;99.90
61253;DHT22;47127;47.516;8.596;2023-10-19T07:26:21;11.10;99.90
61253;DHT22;47127;47.516;8.596;2023-10-19T07:28:55;11.20;99.90
61253;DHT22;47127;47.516;8.596;2023-10-19T07:31:21;11.30;99.90
61253;DHT22;47127;47.516;8.596;2023-10-19T07:33:47;11.30;99.90
61253;DHT22;47127;47.516;8.596;2023-10-19T07:36:15;11.30;99.90
61253;DHT22;47127;47.516;8.596;2023-10-19T07:38:41;11.30;99.90
61253;DHT22;47127;47.516;8.596;2023-10-19T07:41:12;11.30;99.90
61253;DHT22;47127;47.516;8.596;2023-10-19T07:43:37;11.30;99.90
61253;DHT22;47127;47.516;8.596;2023-10-19T07:46:03;11.40;99.90
61253;DHT22;47127;47.516;8.596;2023-10-19T07:48:28;11.40;99.90
61253;DHT22;47127;47.516;8.596;2023-10-19T07:50:54;11.40;99.90
61253;DHT22;47127;47.516;8.596;2023-10-19T07:53:20;11.50;99.90
61253;DHT22;47127;47.516;8.596;2023-10-19T07:55:47;11.50;99.90
61253;DHT22;47127;47.516;8.596;2023-10-19T07:58:12;11.60;99.90
61253;DHT22;47127;47.516;8.596;2023-10-19T08:00:38;11.60;99.90
61253;DHT22;47127;47.516;8.596;2023-10-19T08:03:05;11.80;99.90
61253;DHT22;47127;47.516;8.596;2023-10-19T08:05:32;11.80;99.90
61253;DHT22;47127;47.516;8.596;2023-10-19T08:07:59;11.80;99.90
61253;DHT22;47127;47.516;8.596;2023-10-19T08:10:25;11.60;99.90
61253;DHT22;47127;47.516;8.596;2023-10-19T08:12:52;11.80;99.90
61253;DHT22;47127;47.516;8.596;2023-10-19T08:15:19;11.90;99.90
61253;DHT22;47127;47.516;8.596;2023-10-19T08:17:49;12.00;99.90
61253;DHT22;47127;47.516;8.596;2023-10-19T08:20:20;12.10;99.90
61253;DHT22;47127;47.516;8.596;2023-10-19T08:22:52;12.20;99.90
61253;DHT22;47127;47.516;8.596;2023-10-19T08:25:18;12.20;99.90
61253;DHT22;47127;47.516;8.596;2023-10-19T08:27:44;12.30;99.90
61253;DHT22;47127;47.516;8.596;2023-10-19T08:30:14;12.30;99.90
61253;DHT22;47127;47.516;8.596;2023-10-19T08:32:40;12.40;99.90
61253;DHT22;47127;47.516;8.596;2023-10-19T08:35:10;12.40;99.90
61253;DHT22;47127;47.516;8.596;2023-10-19T08:37:39;12.30;99.90
61253;DHT22;47127;47.516;8.596;2023-10-19T08:40:14;12.40;99.90
61253;DHT22;47127;47.516;8.596;2023-10-19T08:43:00;12.40;99.90
61253;DHT22;47127;47.516;8.596;2023-10-19T08:45:26;12.50;99.90
61253;DHT22;47127;47.516;8.596;2023-10-19T08:47:56;12.40;99.90
61253;DHT22;47127;47.516;8.596;2023-10-19T08:50:27;12.50;99.90
61253;DHT22;47127;47.516;8.596;2023-10-19T08:52:55;12.50;99.90
61253;DHT22;47127;47.516;8.596;2023-10-19T08:55:21;12.50;99.90
61253;DHT22;47127;47.516;8.596;2023-10-19T08:57:49;12.60;99.90
61253;DHT22;47127;47.516;8.596;2023-10-19T09:00:18;12.70;99.90
61253;DHT22;47127;47.516;8.596;2023-10-19T09:02:48;12.80;99.90
61253;DHT22;47127;47.516;8.596;2023-10-19T09:05:14;13.00;99.90
61253;DHT22;47127;47.516;8.596;2023-10-19T09:08:07;13.10;99.90
61253;DHT22;47127;47.516;8.596;2023-10-19T09:10:35;13.10;99.90
61253;DHT22;47127;47.516;8.596;2023-10-19T09:13:02;13.30;99.90
61253;DHT22;47127;47.516;8.596;2023-10-19T09:15:28;13.40;99.90
61253;DHT22;47127;47.516;8.596;2023-10-19T09:20:49;13.50;99.90
61253;DHT22;47127;47.516;8.596;2023-10-19T09:23:23;13.40;99.90
61253;DHT22;47127;47.516;8.596;2023-10-19T09:25:51;13.20;99.90
61253;DHT22;47127;47.516;8.596;2023-10-19T09:28:20;13.20;99.90
61253;DHT22;47127;47.516;8.596;2023-10-19T09:30:47;13.20;99.90
61253;DHT22;47127;47.516;8.596;2023-10-19T09:33:20;13.30;99.90
61253;DHT22;47127;47.516;8.596;2023-10-19T09:35:51;13.30;99.90
61253;DHT22;47127;47.516;8.596;2023-10-19T09:38:23;13.30;99.90
61253;DHT22;47127;47.516;8.596;2023-10-19T09:40:52;13.30;99.90
61253;DHT22;47127;47.516;8.596;2023-10-19T09:43:50;13.30;99.90
61253;DHT22;47127;47.516;8.596;2023-10-19T09:46:37;13.30;99.90
61253;DHT22;47127;47.516;8.596;2023-10-19T09:49:04;13.30;99.90
61253;DHT22;47127;47.516;8.596;2023-10-19T09:51:32;13.20;99.90
61253;DHT22;47127;47.516;8.596;2023-10-19T09:54:07;13.30;99.90
61253;DHT22;47127;47.516;8.596;2023-10-19T09:56:38;13.30;99.90
61253;DHT22;47127;47.516;8.596;2023-10-19T09:59:13;13.30;99.90
61253;DHT22;47127;47.516;8.596;2023-10-19T10:04:34;13.30;99.90
61253;DHT22;47127;47.516;8.596;2023-10-19T10:07:05;13.30;99.90
61253;DHT22;47127;47.516;8.596;2023-10-19T10:09:37;13.30;99.90
61253;DHT22;47127;47.516;8.596;2023-10-19T10:12:22;13.50;99.90
61253;DHT22;47127;47.516;8.596;2023-10-19T10:14:59;13.50;99.90
61253;DHT22;47127;47.516;8.596;2023-10-19T10:17:27;13.70;99.90
61253;DHT22;47127;47.516;8.596;2023-10-19T10:22:43;13.80;99.90
61253;DHT22;47127;47.516;8.596;2023-10-19T10:25:29;13.90;99.90
61253;DHT22;47127;47.516;8.596;2023-10-19T10:27:55;14.10;99.90
61253;DHT22;47127;47.516;8.596;2023-10-19T10:30:21;14.20;99.90
61253;DHT22;47127;47.516;8.596;2023-10-19T10:32:52;14.40;99.90
61253;DHT22;47127;47.516;8.596;2023-10-19T10:38:09;14.80;99.90
61253;DHT22;47127;47.516;8.596;2023-10-19T10:40:50;14.90;99.90
61253;DHT22;47127;47.516;8.596;2023-10-19T10:43:17;15.10;99.90
61253;DHT22;47127;47.516;8.596;2023-10-19T10:45:43;15.20;99.90
61253;DHT22;47127;47.516;8.596;2023-10-19T10:48:17;15.40;99.90
61253;DHT22;47127;47.516;8.596;2023-10-19T10:50:44;15.50;99.90
61253;DHT22;47127;47.516;8.596;2023-10-19T10:53:13;15.70;99.90
61253;DHT22;47127;47.516;8.596;2023-10-19T10:55:39;15.70;99.90
61253;DHT22;47127;47.516;8.596;2023-10-19T10:58:05;15.80;99.90
61253;DHT22;47127;47.516;8.596;2023-10-19T11:00:31;15.80;99.90
61253;DHT22;47127;47.516;8.596;2023-10-19T11:03:04;15.90;99.90
61253;DHT22;47127;47.516;8.596;2023-10-19T11:05:33;15.90;99.90
61253;DHT22;47127;47.516;8.596;2023-10-19T11:08:06;15.80;99.90
61253;DHT22;47127;47.516;8.596;2023-10-19T11:10:33;15.70;99.90
61253;DHT22;47127;47.516;8.596;2023-10-19T11:13:03;15.80;99.90
61253;DHT22;47127;47.516;8.596;2023-10-19T11:15:29;15.80;99.90
61253;DHT22;47127;47.516;8.596;2023-10-19T11:17:54;15.90;99.90
61253;DHT22;47127;47.516;8.596;2023-10-19T11:20:23;16.10;99.90
61253;DHT22;47127;47.516;8.596;2023-10-19T11:22:51;16.30;99.90
61253;DHT22;47127;47.516;8.596;2023-10-19T11:25:20;16.40;99.90
61253;DHT22;47127;47.516;8.596;2023-10-19T11:27:46;16.40;99.90
61253;DHT22;47127;47.516;8.596;2023-10-19T11:30:29;16.40;99.90
61253;DHT22;47127;47.516;8.596;2023-10-19T11:32:57;16.40;99.90
61253;DHT22;47127;47.516;8.596;2023-10-19T11:35:24;16.40;99.90
61253;DHT22;47127;47.516;8.596;2023-10-19T11:37:52;16.20;99.90
61253;DHT22;47127;47.516;8.596;2023-10-19T11:40:19;16.30;99.90
61253;DHT22;47127;47.516;8.596;2023-10-19T11:42:56;16.20;99.90
61253;DHT22;47127;47.516;8.596;2023-10-19T11:45:22;16.10;99.90
61253;DHT22;47127;47.516;8.596;2023-10-19T11:47:51;16.00;99.90
61253;DHT22;47127;47.516;8.596;2023-10-19T11:50:17;16.00;99.90
61253;DHT22;47127;47.516;8.596;2023-10-19T11:52:45;15.90;99.90
61253;DHT22;47127;47.516;8.596;2023-10-19T11:55:12;16.00;99.90
61253;DHT22;47127;47.516;8.596;2023-10-19T11:57:43;16.00;99.90
61253;DHT22;47127;47.516;8.596;2023-10-19T12:00:11;16.10;99.90
61253;DHT22;47127;47.516;8.596;2023-10-19T12:02:45;16.20;99.90
61253;DHT22;47127;47.516;8.596;2023-10-19T12:05:11;16.30;99.90
61253;DHT22;47127;47.516;8.596;2023-10-19T12:07:37;16.30;99.90
61253;DHT22;47127;47.516;8.596;2023-10-19T12:10:07;16.30;99.90
61253;DHT22;47127;47.516;8.596;2023-10-19T12:12:34;16.40;99.90
61253;DHT22;47127;47.516;8.596;2023-10-19T12:15:00;16.50;99.90
61253;DHT22;47127;47.516;8.596;2023-10-19T12:17:25;16.50;99.90
61253;DHT22;47127;47.516;8.596;2023-10-19T12:19:53;16.50;99.90
61253;DHT22;47127;47.516;8.596;2023-10-19T12:22:20;16.50;99.90
61253;DHT22;47127;47.516;8.596;2023-10-19T12:24:46;16.60;99.90
61253;DHT22;47127;47.516;8.596;2023-10-19T12:27:12;16.70;99.90
61253;DHT22;47127;47.516;8.596;2023-10-19T12:29:39;16.80;99.90
61253;DHT22;47127;47.516;8.596;2023-10-19T12:32:05;16.70;99.90
61253;DHT22;47127;47.516;8.596;2023-10-19T12:34:31;16.60;99.90
61253;DHT22;47127;47.516;8.596;2023-10-19T12:36:56;16.70;99.90
61253;DHT22;47127;47.516;8.596;2023-10-19T12:39:24;16.90;99.90
61253;DHT22;47127;47.516;8.596;2023-10-19T12:42:08;16.90;99.90
61253;DHT22;47127;47.516;8.596;2023-10-19T12:44:34;16.90;99.90
61253;DHT22;47127;47.516;8.596;2023-10-19T12:47:10;16.80;99.90
61253;DHT22;47127;47.516;8.596;2023-10-19T12:49:42;16.70;99.90
61253;DHT22;47127;47.516;8.596;2023-10-19T12:52:10;16.70;99.90
61253;DHT22;47127;47.516;8.596;2023-10-19T12:54:36;16.70;99.90
61253;DHT22;47127;47.516;8.596;2023-10-19T12:57:03;16.60;99.90
61253;DHT22;47127;47.516;8.596;2023-10-19T12:59:35;16.60;99.90
61253;DHT22;47127;47.516;8.596;2023-10-19T13:02:05;16.70;99.90
61253;DHT22;47127;47.516;8.596;2023-10-19T13:04:34;16.80;99.90
61253;DHT22;47127;47.516;8.596;2023-10-19T13:06:59;17.00;99.90
61253;DHT22;47127;47.516;8.596;2023-10-19T13:09:26;17.10;99.90
61253;DHT22;47127;47.516;8.596;2023-10-19T13:11:58;17.10;99.90
61253;DHT22;47127;47.516;8.596;2023-10-19T13:14:25;17.30;99.90
61253;DHT22;47127;47.516;8.596;2023-10-19T13:16:51;17.50;99.90
61253;DHT22;47127;47.516;8.596;2023-10-19T13:19:20;17.70;99.90
61253;DHT22;47127;47.516;8.596;2023-10-19T13:21:49;17.70;99.90
61253;DHT22;47127;47.516;8.596;2023-10-19T13:24:16;17.70;99.90
61253;DHT22;47127;47.516;8.596;2023-10-19T13:26:43;17.70;99.90
61253;DHT22;47127;47.516;8.596;2023-10-19T13:29:14;17.70;99.90
61253;DHT22;47127;47.516;8.596;2023-10-19T13:31:42;17.70;99.90
61253;DHT22;47127;47.516;8.596;2023-10-19T13:34:15;17.60;99.90
61253;DHT22;47127;47.516;8.596;2023-10-19T13:36:41;17.70;99.90
61253;DHT22;47127;47.516;8.596;2023-10-19T13:39:06;17.90;99.90
61253;DHT22;47127;47.516;8.596;2023-10-19T13:41:39;17.90;99.90
61253;DHT22;47127;47.516;8.596;2023-10-19T13:44:05;18.10;99.90
61253;DHT22;47127;47.516;8.596;2023-10-19T13:46:30;18.30;99.90
61253;DHT22;47127;47.516;8.596;2023-10-19T13:48:56;18.30;99.90
61253;DHT22;47127;47.516;8.596;2023-10-19T13:51:22;18.40;99.90
61253;DHT22;47127;47.516;8.596;2023-10-19T13:53:48;18.70;99.90
61253;DHT22;47127;47.516;8.596;2023-10-19T13:56:15;18.90;99.90
61253;DHT22;47127;47.516;8.596;2023-10-19T13:58:40;19.00;99.90
61253;DHT22;47127;47.516;8.596;2023-10-19T14:01:08;18.80;99.90
61253;DHT22;47127;47.516;8.596;2023-10-19T14:03:34;18.70;99.90
61253;DHT22;47127;47.516;8.596;2023-10-19T14:06:00;18.80;99.90
61253;DHT22;47127;47.516;8.596;2023-10-19T14:08:25;19.00;99.90
61253;DHT22;47127;47.516;8.596;2023-10-19T14:10:51;19.10;99.90
61253;DHT22;47127;47.516;8.596;2023-10-19T14:13:17;19.10;99.90
61253;DHT22;47127;47.516;8.596;2023-10-19T14:15:43;18.90;99.90
61253;DHT22;47127;47.516;8.596;2023-10-19T14:18:10;18.70;99.90
61253;DHT22;47127;47.516;8.596;2023-10-19T14:20:39;18.60;99.90
61253;DHT22;47127;47.516;8.596;2023-10-19T14:23:06;18.50;99.90
61253;DHT22;47127;47.516;8.596;2023-10-19T14:25:35;18.30;99.90
61253;DHT22;47127;47.516;8.596;2023-10-19T14:28:01;18.30;99.90
61253;DHT22;47127;47.516;8.596;2023-10-19T14:30:27;18.20;99.90
61253;DHT22;47127;47.516;8.596;2023-10-19T14:32:56;18.10;99.90
61253;DHT22;47127;47.516;8.596;2023-10-19T14:35:24;18.20;99.90
61253;DHT22;47127;47.516;8.596;2023-10-19T14:37:53;18.30;99.90
61253;DHT22;47127;47.516;8.596;2023-10-19T14:40:25;18.70;99.90
61253;DHT22;47127;47.516;8.596;2023-10-19T14:42:52;19.30;99.90
61253;DHT22;47127;47.516;8.596;2023-10-19T14:45:25;19.60;99.90
61253;DHT22;47127;47.516;8.596;2023-10-19T14:47:52;20.00;99.90
61253;DHT22;47127;47.516;8.596;2023-10-19T14:50:20;20.30;99.90
61253;DHT22;47127;47.516;8.596;2023-10-19T14:52:47;20.50;99.90
61253;DHT22;47127;47.516;8.596;2023-10-19T14:55:14;20.30;99.90
61253;DHT22;47127;47.516;8.596;2023-10-19T14:57:43;20.00;99.90
61253;DHT22;47127;47.516;8.596;2023-10-19T15:00:11;19.80;99.90
61253;DHT22;47127;47.516;8.596;2023-10-19T15:02:44;19.40;99.90
61253;DHT22;47127;47.516;8.596;2023-10-19T15:05:11;19.40;99.90
61253;DHT22;47127;47.516;8.596;2023-10-19T15:07:46;19.20;99.90
61253;DHT22;47127;47.516;8.596;2023-10-19T15:10:18;18.90;99.90
61253;DHT22;47127;47.516;8.596;2023-10-19T15:12:44;18.60;99.90
61253;DHT22;47127;47.516;8.596;2023-10-19T15:15:11;18.40;99.90
61253;DHT22;47127;47.516;8.596;2023-10-19T15:17:37;18.30;99.90
61253;DHT22;47127;47.516;8.596;2023-10-19T15:20:08;18.20;99.90
61253;DHT22;47127;47.516;8.596;2023-10-19T15:22:37;18.00;99.90
61253;DHT22;47127;47.516;8.596;2023-10-19T15:25:04;17.90;99.90
61253;DHT22;47127;47.516;8.596;2023-10-19T15:27:42;17.70;99.90
61253;DHT22;47127;47.516;8.596;2023-10-19T15:30:09;17.50;99.90
61253;DHT22;47127;47.516;8.596;2023-10-19T15:32:37;17.20;99.90
61253;DHT22;47127;47.516;8.596;2023-10-19T15:35:03;17.20;99.90
61253;DHT22;47127;47.516;8.596;2023-10-19T15:37:29;17.30;99.90
61253;DHT22;47127;47.516;8.596;2023-10-19T15:39:56;17.30;99.90
61253;DHT22;47127;47.516;8.596;2023-10-19T15:42:22;17.30;99.90
61253;DHT22;47127;47.516;8.596;2023-10-19T15:44:48;17.20;99.90
61253;DHT22;47127;47.516;8.596;2023-10-19T15:47:15;17.20;99.90
61253;DHT22;47127;47.516;8.596;2023-10-19T15:50:01;17.20;99.90
61253;DHT22;47127;47.516;8.596;2023-10-19T15:52:28;17.20;99.90